CCLTE SCVL-SCQP
Flight info
| Callsign | CCLTE |
|---|---|
| Flight time | 0h 29m |
| Altitude | 4500 |
| Route | DCT |
| Aircraft | C172/L-SFG/C |
Departure
| Time | 2026-04-25 09:51 |
|---|---|
| Airport | Las Marías Airport (SCVL) |
Arrival
| Time | 2026-04-25 10:21 |
|---|---|
| Airport | La Araucanía International Airport (SCQP) |
| Time | Latitude | Longitude | Altitude | Speed | Heading |
|---|---|---|---|---|---|
| 2026-04-25 09:44 | -39.80048 | -73.24426 | 36 ft | 0 kts | 284° |
| 2026-04-25 09:45 | -39.80048 | -73.24427 | 36 ft | 0 kts | 296° |
| 2026-04-25 09:45 | -39.80042 | -73.24427 | 36 ft | 1 kts | 39° |
| 2026-04-25 09:46 | -39.80011 | -73.24400 | 37 ft | 8 kts | 16° |
| 2026-04-25 09:46 | -39.79961 | -73.24363 | 36 ft | 9 kts | 34° |
| 2026-04-25 09:46 | -39.79932 | -73.24315 | 37 ft | 0 kts | 63° |
| 2026-04-25 09:49 | -39.79929 | -73.24309 | 38 ft | 5 kts | 63° |
| 2026-04-25 09:49 | -39.79903 | -73.24213 | 37 ft | 10 kts | 103° |
| 2026-04-25 09:49 | -39.79953 | -73.24180 | 38 ft | 10 kts | 189° |
| 2026-04-25 09:49 | -39.80052 | -73.24187 | 39 ft | 20 kts | 184° |
| 2026-04-25 09:50 | -39.80177 | -73.24203 | 40 ft | 11 kts | 206° |
| 2026-04-25 09:50 | -39.80202 | -73.24190 | 40 ft | 0 kts | 12° |
| 2026-04-25 09:50 | -39.80171 | -73.24197 | 40 ft | 11 kts | 4° |
| 2026-04-25 09:50 | -39.79933 | -73.24178 | 38 ft | 61 kts | 3° |
| 2026-04-25 09:51 | -39.79373 | -73.24138 | 90 ft | 93 kts | 2° |
| 2026-04-25 09:51 | -39.78736 | -73.24196 | 354 ft | 91 kts | 350° |
| 2026-04-25 09:51 | -39.78087 | -73.24415 | 526 ft | 98 kts | 353° |
| 2026-04-25 09:51 | -39.77418 | -73.24355 | 759 ft | 100 kts | 6° |
| 2026-04-25 09:52 | -39.76725 | -73.24158 | 941 ft | 105 kts | 27° |
| 2026-04-25 09:52 | -39.76087 | -73.23671 | 1120 ft | 108 kts | 37° |
| 2026-04-25 09:52 | -39.75469 | -73.23098 | 1293 ft | 110 kts | 37° |
| 2026-04-25 09:52 | -39.74842 | -73.22520 | 1470 ft | 111 kts | 37° |
| 2026-04-25 09:53 | -39.74239 | -73.21885 | 1631 ft | 112 kts | 42° |
| 2026-04-25 09:53 | -39.73649 | -73.21235 | 1813 ft | 110 kts | 40° |
| 2026-04-25 09:53 | -39.73022 | -73.20663 | 1991 ft | 110 kts | 36° |
| 2026-04-25 09:53 | -39.72388 | -73.20102 | 2177 ft | 110 kts | 36° |
| 2026-04-25 09:54 | -39.71720 | -73.19609 | 2355 ft | 111 kts | 27° |
| 2026-04-25 09:54 | -39.71030 | -73.19159 | 2538 ft | 111 kts | 28° |
| 2026-04-25 09:54 | -39.70339 | -73.18709 | 2718 ft | 111 kts | 28° |
| 2026-04-25 09:54 | -39.69649 | -73.18257 | 2897 ft | 111 kts | 28° |
| 2026-04-25 09:55 | -39.68960 | -73.17803 | 3079 ft | 111 kts | 28° |
| 2026-04-25 09:55 | -39.68270 | -73.17350 | 3259 ft | 111 kts | 28° |
| 2026-04-25 09:55 | -39.67582 | -73.16896 | 3441 ft | 111 kts | 28° |
| 2026-04-25 09:55 | -39.66891 | -73.16440 | 3621 ft | 111 kts | 28° |
| 2026-04-25 09:56 | -39.66202 | -73.15984 | 3801 ft | 111 kts | 28° |
| 2026-04-25 09:56 | -39.65515 | -73.15528 | 3976 ft | 111 kts | 28° |
| 2026-04-25 09:56 | -39.64829 | -73.15074 | 4155 ft | 111 kts | 28° |
| 2026-04-25 09:56 | -39.64148 | -73.14615 | 4336 ft | 110 kts | 30° |
| 2026-04-25 09:57 | -39.63484 | -73.14121 | 4504 ft | 111 kts | 31° |
| 2026-04-25 09:57 | -39.62772 | -73.13589 | 4526 ft | 123 kts | 31° |
| 2026-04-25 09:57 | -39.62008 | -73.13016 | 4526 ft | 131 kts | 31° |
| 2026-04-25 09:57 | -39.61218 | -73.12421 | 4604 ft | 129 kts | 31° |
| 2026-04-25 09:58 | -39.60716 | -73.12045 | 4755 ft | 121 kts | 31° |
| 2026-04-25 09:58 | -39.60014 | -73.11525 | 5000 ft | 112 kts | 31° |
| 2026-04-25 09:58 | -39.59357 | -73.11043 | 5232 ft | 106 kts | 31° |
| 2026-04-25 09:58 | -39.58704 | -73.10566 | 5374 ft | 109 kts | 30° |
| 2026-04-25 09:59 | -39.58031 | -73.10084 | 5529 ft | 111 kts | 30° |
| 2026-04-25 09:59 | -39.57352 | -73.09597 | 5686 ft | 112 kts | 30° |
| 2026-04-25 09:59 | -39.56668 | -73.09107 | 5843 ft | 113 kts | 30° |
| 2026-04-25 09:59 | -39.55982 | -73.08615 | 6001 ft | 113 kts | 30° |
| 2026-04-25 10:00 | -39.55296 | -73.08122 | 6158 ft | 113 kts | 29° |
| 2026-04-25 10:00 | -39.54605 | -73.07647 | 6313 ft | 112 kts | 28° |
| 2026-04-25 10:00 | -39.53913 | -73.07184 | 6467 ft | 112 kts | 28° |
| 2026-04-25 10:00 | -39.53199 | -73.06701 | 6513 ft | 122 kts | 28° |
| 2026-04-25 10:01 | -39.52423 | -73.06172 | 6530 ft | 129 kts | 28° |
| 2026-04-25 10:01 | -39.51603 | -73.05614 | 6526 ft | 136 kts | 28° |
| 2026-04-25 10:01 | -39.50761 | -73.05041 | 6527 ft | 138 kts | 28° |
| 2026-04-25 10:01 | -39.49909 | -73.04458 | 6526 ft | 139 kts | 29° |
| 2026-04-25 10:02 | -39.49057 | -73.03858 | 6528 ft | 139 kts | 29° |
| 2026-04-25 10:02 | -39.48206 | -73.03257 | 6526 ft | 139 kts | 29° |
| 2026-04-25 10:02 | -39.47350 | -73.02654 | 6526 ft | 141 kts | 29° |
| 2026-04-25 10:02 | -39.46489 | -73.02046 | 6523 ft | 141 kts | 29° |
| 2026-04-25 10:03 | -39.45628 | -73.01439 | 6523 ft | 140 kts | 29° |
| 2026-04-25 10:03 | -39.44872 | -73.00910 | 6522 ft | 139 kts | 29° |
| 2026-04-25 10:03 | -39.44019 | -73.00309 | 6522 ft | 140 kts | 29° |
| 2026-04-25 10:03 | -39.43160 | -72.99703 | 6523 ft | 140 kts | 29° |
| 2026-04-25 10:04 | -39.42309 | -72.99101 | 6521 ft | 139 kts | 29° |
| 2026-04-25 10:04 | -39.41463 | -72.98503 | 6527 ft | 139 kts | 29° |
| 2026-04-25 10:04 | -39.40611 | -72.97900 | 6523 ft | 140 kts | 29° |
| 2026-04-25 10:04 | -39.39768 | -72.97303 | 6523 ft | 139 kts | 29° |
| 2026-04-25 10:05 | -39.38916 | -72.96698 | 6524 ft | 140 kts | 29° |
| 2026-04-25 10:05 | -39.38066 | -72.96097 | 6521 ft | 139 kts | 29° |
| 2026-04-25 10:05 | -39.37217 | -72.95495 | 6525 ft | 139 kts | 29° |
| 2026-04-25 10:05 | -39.36364 | -72.94889 | 6529 ft | 140 kts | 29° |
| 2026-04-25 10:06 | -39.35508 | -72.94280 | 6522 ft | 140 kts | 29° |
| 2026-04-25 10:06 | -39.34649 | -72.93668 | 6527 ft | 139 kts | 29° |
| 2026-04-25 10:06 | -39.33798 | -72.93063 | 6528 ft | 140 kts | 29° |
| 2026-04-25 10:06 | -39.32953 | -72.92461 | 6525 ft | 140 kts | 29° |
| 2026-04-25 10:07 | -39.32105 | -72.91854 | 6521 ft | 139 kts | 29° |
| 2026-04-25 10:07 | -39.31266 | -72.91251 | 6523 ft | 138 kts | 29° |
| 2026-04-25 10:07 | -39.30423 | -72.90646 | 6523 ft | 139 kts | 29° |
| 2026-04-25 10:07 | -39.29576 | -72.90039 | 6523 ft | 139 kts | 28° |
| 2026-04-25 10:08 | -39.28735 | -72.89432 | 6524 ft | 138 kts | 29° |
| 2026-04-25 10:08 | -39.27896 | -72.88828 | 6521 ft | 137 kts | 29° |
| 2026-04-25 10:08 | -39.27064 | -72.88230 | 6519 ft | 136 kts | 29° |
| 2026-04-25 10:08 | -39.26233 | -72.87635 | 6519 ft | 137 kts | 29° |
| 2026-04-25 10:09 | -39.25397 | -72.87031 | 6522 ft | 138 kts | 29° |
| 2026-04-25 10:09 | -39.24561 | -72.86429 | 6522 ft | 138 kts | 29° |
| 2026-04-25 10:09 | -39.23719 | -72.85822 | 6519 ft | 138 kts | 29° |
| 2026-04-25 10:09 | -39.22885 | -72.85222 | 6516 ft | 136 kts | 28° |
| 2026-04-25 10:10 | -39.22154 | -72.84693 | 6517 ft | 137 kts | 29° |
| 2026-04-25 10:10 | -39.21322 | -72.84092 | 6516 ft | 137 kts | 28° |
| 2026-04-25 10:10 | -39.20486 | -72.83485 | 6521 ft | 139 kts | 28° |
| 2026-04-25 10:10 | -39.19597 | -72.82958 | 6393 ft | 145 kts | 22° |
| 2026-04-25 10:11 | -39.18686 | -72.82450 | 6140 ft | 139 kts | 22° |
| 2026-04-25 10:11 | -39.17822 | -72.81970 | 5870 ft | 132 kts | 22° |
| 2026-04-25 10:11 | -39.16992 | -72.81516 | 5600 ft | 128 kts | 23° |
| 2026-04-25 10:11 | -39.16184 | -72.81041 | 5339 ft | 127 kts | 24° |
| 2026-04-25 10:12 | -39.15383 | -72.80565 | 5081 ft | 127 kts | 24° |
| 2026-04-25 10:12 | -39.14582 | -72.80092 | 4806 ft | 127 kts | 24° |
| 2026-04-25 10:12 | -39.13015 | -72.79094 | 4292 ft | 124 kts | 27° |
| 2026-04-25 10:13 | -39.12242 | -72.78586 | 4037 ft | 125 kts | 27° |
| 2026-04-25 10:13 | -39.11468 | -72.78079 | 3778 ft | 125 kts | 27° |
| 2026-04-25 10:13 | -39.10695 | -72.77578 | 3519 ft | 124 kts | 27° |
| 2026-04-25 10:13 | -39.09927 | -72.77083 | 3259 ft | 123 kts | 27° |
| 2026-04-25 10:14 | -39.09165 | -72.76593 | 3002 ft | 122 kts | 27° |
| 2026-04-25 10:14 | -39.08404 | -72.76110 | 2743 ft | 122 kts | 27° |
| 2026-04-25 10:14 | -39.07662 | -72.75618 | 2513 ft | 120 kts | 31° |
| 2026-04-25 10:14 | -39.06980 | -72.75121 | 2492 ft | 107 kts | 31° |
| 2026-04-25 10:15 | -39.06342 | -72.74663 | 2484 ft | 104 kts | 31° |
| 2026-04-25 10:15 | -39.05730 | -72.74224 | 2484 ft | 98 kts | 31° |
| 2026-04-25 10:15 | -39.05156 | -72.73814 | 2461 ft | 94 kts | 31° |
| 2026-04-25 10:15 | -39.04545 | -72.73374 | 2266 ft | 105 kts | 31° |
| 2026-04-25 10:16 | -39.03892 | -72.72900 | 2071 ft | 111 kts | 31° |
| 2026-04-25 10:16 | -39.03206 | -72.72418 | 1877 ft | 114 kts | 28° |
| 2026-04-25 10:16 | -39.02506 | -72.71936 | 1677 ft | 115 kts | 30° |
| 2026-04-25 10:16 | -39.01806 | -72.71443 | 1480 ft | 115 kts | 30° |
| 2026-04-25 10:17 | -39.01105 | -72.70947 | 1296 ft | 113 kts | 30° |
| 2026-04-25 10:17 | -39.00459 | -72.70492 | 1293 ft | 100 kts | 30° |
| 2026-04-25 10:17 | -38.99870 | -72.70092 | 1281 ft | 92 kts | 28° |
| 2026-04-25 10:17 | -38.99312 | -72.69717 | 1278 ft | 89 kts | 28° |
| 2026-04-25 10:18 | -38.98771 | -72.69353 | 1248 ft | 90 kts | 28° |
| 2026-04-25 10:18 | -38.98188 | -72.68957 | 1100 ft | 99 kts | 29° |
| 2026-04-25 10:18 | -38.97530 | -72.68519 | 858 ft | 111 kts | 28° |
| 2026-04-25 10:18 | -38.96874 | -72.68089 | 795 ft | 98 kts | 28° |
| 2026-04-25 10:19 | -38.96274 | -72.67699 | 675 ft | 97 kts | 28° |
| 2026-04-25 10:19 | -38.95674 | -72.67310 | 547 ft | 96 kts | 28° |
| 2026-04-25 10:19 | -38.95089 | -72.66933 | 488 ft | 89 kts | 28° |
| 2026-04-25 10:19 | -38.94564 | -72.66598 | 485 ft | 78 kts | 27° |
| 2026-04-25 10:20 | -38.94084 | -72.66298 | 479 ft | 76 kts | 27° |
| 2026-04-25 10:20 | -38.93621 | -72.66003 | 488 ft | 73 kts | 31° |
| 2026-04-25 10:20 | -38.93395 | -72.65508 | 548 ft | 57 kts | 68° |
| 2026-04-25 10:20 | -38.92994 | -72.65351 | 412 ft | 65 kts | 14° |
| 2026-04-25 10:21 | -38.92584 | -72.65147 | 311 ft | 56 kts | 12° |
| 2026-04-25 10:21 | -38.92286 | -72.65036 | 308 ft | 33 kts | 15° |
| 2026-04-25 10:21 | -38.92170 | -72.64960 | 309 ft | 12 kts | 78° |
| 2026-04-25 10:21 | -38.92185 | -72.64868 | 309 ft | 10 kts | 108° |
| 2026-04-25 10:22 | -38.92207 | -72.64779 | 308 ft | 11 kts | 107° |
| 2026-04-25 10:22 | -38.92232 | -72.64677 | 308 ft | 13 kts | 108° |
| 2026-04-25 10:22 | -38.92251 | -72.64594 | 308 ft | 7 kts | 101° |
| 2026-04-25 10:22 | -38.92224 | -72.64568 | 308 ft | 5 kts | 17° |
| 2026-04-25 10:23 | -38.92194 | -72.64558 | 308 ft | 4 kts | 14° |
| 2026-04-25 10:23 | -38.92186 | -72.64551 | 308 ft | 0 kts | 116° |
| 2026-04-25 10:23 | -38.92192 | -72.64549 | 308 ft | 0 kts | 202° |